Flight Track Log - Related Links

Times and Time Zones

All times are in EDT time to prevent confusion due to time zone crossing. See the SWA1880 flight status page for this flight to view local times or setup timezone preferences in your user account.

Time Position Orientation Groundspeed Altitude Reporting Facility
EDT Latitude Longitude Course Direction KTS MPH feet Rate Location/Type
Mon 06:19:53 PM 29.6331 -95.2631 146° Southeast 160 184 900  Level Houston Center
Mon 06:20:11 PM 29.6194 -95.2525 146° Southeast 169 194 1,700 2,364 Climbing Houston Center
Mon 06:20:59 PM 29.5847 -95.2233 144° Southeast 207 238 3,500 2,182 Climbing Houston Center
Mon 06:22:01 PM 29.5867 -95.1575 88° East 238 274 5,700 2,468 Climbing Houston Center
Mon 06:23:03 PM 29.6014 -95.0781 78° East 259 298 8,600 2,323 Climbing Houston Center
Mon 06:24:05 PM 29.6164 -94.9889 79° East 284 327 10,500 2,371 Climbing Houston Center
Mon 06:25:07 PM 29.6369 -94.8625 79° East 334 384 13,500 2,613 Climbing Houston Center
Mon 06:26:09 PM 29.6542 -94.7553 80° East 342 394 15,900 2,081 Climbing Houston Center
Mon 06:27:11 PM 29.6653 -94.6417 84° East 357 411 17,800 1,597 Climbing Houston Center
Mon 06:28:13 PM 29.6694 -94.5200 88° East 378 435 19,200 1,403 Climbing Houston Center
Mon 06:29:15 PM 29.6744 -94.3925 87° East 397 457 20,700 1,452 Climbing Houston Center
Mon 06:30:17 PM 29.6789 -94.2575 88° East 418 481 22,200 1,597 Climbing Houston Center
Mon 06:31:19 PM 29.6844 -94.0933 88° East 427 491 24,000 1,500 Climbing Houston Center
Mon 06:32:21 PM 29.6869 -93.9531 89° East 436 502 25,300 1,306 Climbing Houston Center
Mon 06:33:23 PM 29.6847 -93.8072 91° East 452 520 26,700 1,210 Climbing Houston Center
Mon 06:34:25 PM 29.6831 -93.6608 91° East 459 528 27,800 968 Climbing Houston Center
Mon 06:35:27 PM 29.6803 -93.5097 91° East 472 543 28,700 871 Climbing Houston Center
Mon 06:36:29 PM 29.6783 -93.3253 91° East 485 558 29,600 976 Climbing Houston Center
Mon 06:37:30 PM 29.6767 -93.1658 91° East 497 572 30,700 1,122 Climbing Houston Center
Mon 06:38:32 PM 29.6742 -93.0061 91° East 501 577 31,900 1,016 Climbing Houston Center
Mon 06:39:34 PM 29.6719 -92.8433 91° East 509 586 32,800 1,065 Climbing Houston Center
Mon 06:40:36 PM 29.6686 -92.6811 91° East 512 589 34,100 1,065 Climbing Houston Center
Mon 06:41:38 PM 29.6653 -92.5203 91° East 506 582 35,000 435 Climbing Houston Center
Mon 06:42:40 PM 29.6553 -92.3258 93° East 508 585 35,000  Level Houston Center
Mon 06:43:42 PM 29.6211 -92.1697 104° East 507 583 35,000  Level Houston Center
Mon 06:44:44 PM 29.5889 -92.0125 103° East 508 585 35,000  Level Houston Center
Mon 06:45:46 PM 29.5553 -91.8558 104° East 507 583 35,000  Level Houston Center
Mon 06:46:48 PM 29.5181 -91.6778 103° East 508 585 35,000  Level Houston Center
Mon 06:47:50 PM 29.4856 -91.5194 103° East 511 588 35,000  Level Houston Center
Mon 06:48:51 PM 29.4511 -91.3625 104° East 510 587 35,000  Level Houston Center
Mon 06:49:53 PM 29.4178 -91.2056 104° East 511 588 35,000  Level Houston Center
Mon 06:50:55 PM 29.3842 -91.0481 104° East 511 588 35,000  Level Houston Center
Mon 06:51:57 PM 29.3497 -90.8900 104° East 513 590 35,000  Level Houston Center
Mon 06:52:59 PM 29.3075 -90.7019 104° East 512 589 35,000  Level Houston Center
Mon 06:54:01 PM 29.2733 -90.5444 104° East 512 589 35,000  Level Houston Center
Mon 06:55:03 PM 29.2381 -90.3869 104° East 514 592 35,000  Level Houston Center
Mon 06:56:05 PM 29.2033 -90.2294 104° East 514 592 35,000  Level Houston Center
Mon 06:57:07 PM 29.1681 -90.0706 104° East 518 596 35,000  Level Houston Center
Mon 06:58:09 PM 29.1353 -89.9103 103° East 520 598 35,000  Level Houston Center
Mon 06:59:10 PM 29.0967 -89.7208 103° East 514 592 35,000  Level Houston Center
Mon 07:00:12 PM 29.0639 -89.5597 103° East 520 598 35,000 -48 Level Houston Center
Mon 07:01:14 PM 29.0311 -89.4022 103° East 517 595 34,900  Descending Houston Center
Mon 07:02:16 PM 28.9975 -89.2456 104° East 513 590 35,000 48 Climbing Houston Center
Mon 07:03:18 PM 28.9639 -89.0839 103° East 518 596 35,000  Level Houston Center
Mon 07:04:20 PM 28.9242 -88.8919 103° East 520 598 35,000  Level Houston Center
Mon 07:05:22 PM 28.8903 -88.7319 104° East 521 600 35,000  Level Houston Center
Mon 07:06:24 PM 28.8497 -88.5767 107° East 515 593 35,000 -48 Level Houston Center
Mon 07:07:26 PM 28.8064 -88.4222 108° East 512 589 34,900  Descending Houston Center
Mon 07:08:28 PM 28.7628 -88.2678 108° East 511 588 35,000 48 Climbing Houston Center
Mon 07:09:30 PM 28.7194 -88.1125 108° East 514 592 35,000 -49 Level Houston Center
Mon 07:10:31 PM 28.6764 -87.9567 107° East 510 587 34,900  Descending Houston Center
Mon 07:11:33 PM 28.6247 -87.7722 108° East 510 587 35,000 48 Climbing Houston Center
Mon 07:12:35 PM 28.5800 -87.6206 109° East 507 583 35,000  Level Houston Center
Mon 07:13:16 PM 28.5525 -87.5242 108° East 494 568 35,000  Level Jacksonville Center
Mon 07:14:16 PM 28.5061 -87.3664 108° East 509 586 35,000  Level Jacksonville Center
Mon 07:15:15 PM 28.4631 -87.2181 108° East 514 592 35,000  Level Jacksonville Center
Mon 07:16:16 PM 28.4222 -87.0700 107° East 501 577 35,000 -100 Level Jacksonville Center
Mon 07:17:15 PM 28.3808 -86.9244 108° East 501 577 34,800 -700 Descending Jacksonville Center
Mon 07:18:16 PM 28.3317 -86.7622 109° East 500 575 33,600 -893 Descending Jacksonville Center
Mon 07:19:16 PM 28.2900 -86.6192 108° East 494 568 33,000 -353 Descending Jacksonville Center
Mon 07:20:15 PM 28.2539 -86.4906 108° East 481 554 32,900  Descending Jacksonville Center
Mon 07:21:16 PM 28.2081 -86.3381 109° East 483 556 33,000 50 Climbing Jacksonville Center
Mon 07:22:16 PM 28.1581 -86.1764 109° East 502 578 33,000 -200 Level Jacksonville Center
Mon 07:23:16 PM 28.1139 -86.0267 108° East 507 583 32,600 -750 Descending Jacksonville Center
Mon 07:24:16 PM 28.0717 -85.8750 107° East 507 583 31,500 -850 Descending Jacksonville Center
Mon 07:25:16 PM 28.0267 -85.7350 110° East 500 575 30,900 -143 Descending Jacksonville Center
Mon 07:27:46 PM 27.9211 -85.3711 108° East 470 541 31,000 29 Climbing Miami Center
Mon 07:28:46 PM 27.8800 -85.2178 107° East 482 555 31,000  Level Miami Center
Mon 07:29:46 PM 27.8786 -85.0606 91° East 486 559 31,000  Level Miami Center
Mon 07:30:46 PM 27.8800 -84.9247 89° East 486 559 31,000  Level Miami Center
Mon 07:31:46 PM 27.8867 -84.7681 87° East 491 565 31,000  Level Miami Center
Mon 07:32:46 PM 27.8869 -84.6133 90° East 491 565 31,000 -350 Level Miami Center
Mon 07:33:46 PM 27.8972 -84.4592 86° East 496 571 30,300 -1,450 Descending Miami Center
Mon 07:34:46 PM 27.8947 -84.3064 91° East 496 571 28,100 -2,200 Descending Miami Center
Mon 07:35:46 PM 27.9000 -84.1614 88° East 478 550 25,900 -2,200 Descending Miami Center
Mon 07:36:46 PM 27.9050 -84.0233 88° East 458 527 23,700 -2,150 Descending Miami Center
Mon 07:37:46 PM 27.9036 -83.8847 91° East 441 507 21,600 -2,100 Descending Miami Center
Mon 07:38:46 PM 27.9075 -83.7558 88° East 424 488 19,500 -1,850 Descending Miami Center
Mon 07:39:46 PM 27.9053 -83.6314 91° East 412 474 17,900 -1,750 Descending Miami Center
Mon 07:40:46 PM 27.9086 -83.5119 88° East 391 450 16,000 -1,950 Descending Miami Center
Mon 07:41:46 PM 27.9119 -83.3947 88° East 379 436 14,000 -2,000 Descending Miami Center
Mon 07:42:46 PM 27.9108 -83.2842 91° East 362 417 12,000 -1,750 Descending Miami Center
Mon 07:43:46 PM 27.9133 -83.1764 88° East 352 405 10,500 -1,400 Descending Miami Center
Mon 07:44:46 PM 27.8861 -83.0881 109° East 307 353 9,200 -1,400 Descending Miami Center
Mon 07:45:46 PM 27.8481 -83.0039 117° Southeast 307 353 7,700 -1,100 Descending Miami Center
Mon 07:46:46 PM 27.8094 -82.9244 119° Southeast 296 341 7,000 -350 Descending Miami Center
Mon 07:47:46 PM 27.7753 -82.8453 116° Southeast 286 329 7,000 -456 Level Miami Center
Mon 07:48:05 PM 27.7833 -82.8167 72° East 254 292 6,400 -1,291 Descending Tampa TRACON
Mon 07:49:05 PM 27.7833 -82.7333 90° East 245 282 5,300 -1,100 Descending Tampa TRACON
Mon 07:50:05 PM 27.7833 -82.6667 90° East 240 276 4,200 -1,100 Descending Tampa TRACON
Mon 07:51:05 PM 27.7833 -82.5833 90° East 233 268 3,100 -744 Descending Tampa TRACON
Mon 07:52:06 PM 27.8500 -82.5667 12° North 210 242 2,700 -700 Descending Tampa TRACON
Mon 07:53:05 PM 27.8833 -82.5500 24° Northeast 142 163 1,700 -895 Descending Tampa TRACON
Mon 07:54:00 PM 27.9167 -82.5500 360° North 132 152 1,000 -764 Descending Tampa TRACON
Mon 07:55:00 PM 27.9667 -82.5167 19° North  Level FlightAware Approximate
Mon 08:02:00 PM 27.9755 -82.5332 19° North  Level Estimated
Mon 08:03:00 PM 27.9755 -82.5332 19° North  Level Estimated
Mon 08:04:00 PM 27.9755 -82.5332 19° North  Level Estimated

Login

Don't have an account? Register now (free) for customized features, flight alerts, and more!